Terminal Aerodrome Forecast
Issued by NWS North Platte, NE

Home | Current Version | Previous Version | Text Only | Print | Product List | Glossary On
Versions: 1 2 3 4 5 6 7 8 9 10 11 12 13 14
840
FTUS43 KLBF 232320
TAFLBF
TAF
KLBF 232320Z 2400/2424 25005KT P6SM SCT120 BKN250
     FM240700 28010KT P6SM SCT120 BKN250
     FM241700 33018G25KT P6SM SCT250
     FM242300 35010KT P6SM SCT120=

USA.gov is the U.S. government's official web portal to all federal, state and local government web resources and services.